WetterOnline ( https://www.wetteronline.de )

Wetter aktuell Nürburg

Aktuelles Wetter: Nürburg-Barweiler (488m)

6-stündlich | Neueste Meldungen
Ortszeit Temperatur Wetter
Mi, 28.02. 19:00 5.4° C bedeckt
Mi, 28.02. 13:00 7.4° C leicht bewölkt
Mi, 28.02. 7:00 -0.4° C Nebel
Mi, 28.02. 1:00 1.3° C Nebel
Di, 27.02. 19:00 3.5° C bedeckt
Di, 27.02. 13:00 4.7° C bedeckt
Di, 27.02. 7:00 3.2° C bedeckt
Di, 27.02. 1:00 3.8° C bedeckt
Ortszeit Temperatur Wetter
Do, 29.02. 0:00 2.2° C leicht bewölkt
Mi, 28.02. 23:40 2.3° C leicht bewölkt
Mi, 28.02. 23:30 2.8° C leicht bewölkt
Mi, 28.02. 23:20 2.8° C leicht bewölkt
Mi, 28.02. 23:10 2.8° C fast wolkenlos
Mi, 28.02. 23:00 2.7° C leicht bewölkt
Mi, 28.02. 22:50 2.7° C leicht bewölkt
Mi, 28.02. 22:30 2.9° C bedeckt
Mi, 28.02. 22:00 3.3° C bedeckt
Mi, 28.02. 21:30 3.7° C bedeckt
Mi, 28.02. 21:00 4.1° C bedeckt
Ortszeit Relative Feuchte Sichtweite
Mi, 28.02. 19:00 69% 45 km
Mi, 28.02. 13:00 57% 55 km
Mi, 28.02. 7:00 99% <100 m
Mi, 28.02. 1:00 99% 0.9 km
Di, 27.02. 19:00 92% 5.0 km
Di, 27.02. 13:00 88% 11 km
Di, 27.02. 7:00 97% 2.2 km
Di, 27.02. 1:00 97% 4.3 km
Ortszeit Relative Feuchte Sichtweite
Do, 29.02. 0:00 87% 14 km
Mi, 28.02. 23:40 87% -
Mi, 28.02. 23:30 85% 15 km
Mi, 28.02. 23:20 85% -
Mi, 28.02. 23:10 86% -
Mi, 28.02. 23:00 87% 14 km
Mi, 28.02. 22:50 87% -
Mi, 28.02. 22:30 86% 17 km
Mi, 28.02. 22:00 83% 26 km
Mi, 28.02. 21:30 80% 29 km
Mi, 28.02. 21:00 76% 40 km
Ortszeit Niederschlagsmenge Niederschlagsart
Mi, 28.02. 19:00 0.0 l/m2 in 12 Std. -
Mi, 28.02. 13:00 0.0 l/m2 in 6 Std. -
Mi, 28.02. 7:00 0.0 l/m2 in 12 Std. -
Mi, 28.02. 1:00 0.0 l/m2 in 6 Std. -
Di, 27.02. 19:00 0.0 l/m2 in 12 Std. -
Di, 27.02. 13:00 0.0 l/m2 in 6 Std. -
Di, 27.02. 7:00 0.0 l/m2 in 12 Std. -
Di, 27.02. 1:00 0.0 l/m2 in 6 Std. -
Ortszeit Niederschlagsmenge Niederschlagsart
Do, 29.02. 0:00 0.0 l/m2 in 1 Std. -
Mi, 28.02. 23:40 keine Meldung -
Mi, 28.02. 23:30 0.0 l/m2 in 30 Min -
Mi, 28.02. 23:20 keine Meldung -
Mi, 28.02. 23:10 keine Meldung -
Mi, 28.02. 23:00 0.0 l/m2 in 1 Std. -
Mi, 28.02. 22:50 keine Meldung -
Mi, 28.02. 22:30 0.0 l/m2 in 30 Min -
Mi, 28.02. 22:00 0.0 l/m2 in 1 Std. -
Mi, 28.02. 21:30 0.0 l/m2 in 30 Min -
Mi, 28.02. 21:00 0.0 l/m2 in 1 Std. -
Ortszeit Stärke Spitze Richtung
km/h Bft. km/h Grad Sektor
Mi, 28.02. 19:00 7 2 22 170° S
Mi, 28.02. 13:00 4 1 11 250° W
Mi, 28.02. 7:00 4 1 11 230° SW
Mi, 28.02. 1:00 7 2 22 50° NO
Di, 27.02. 19:00 14 3 25 350° N
Di, 27.02. 13:00 13 3 20 20° N
Di, 27.02. 7:00 11 2 22 20° N
Di, 27.02. 1:00 13 3 28 20° N
Ortszeit Stärke Spitze Richtung
km/h Bft. km/h Grad Sektor
Do, 29.02. 0:00 7 2 14 200° S
Mi, 28.02. 23:40 7 2 - 210° SW
Mi, 28.02. 23:30 7 2 14 200° S
Mi, 28.02. 23:20 7 2 - 200° S
Mi, 28.02. 23:10 7 2 - 200° S
Mi, 28.02. 23:00 7 2 14 200° S
Mi, 28.02. 22:50 7 2 - 200° S
Mi, 28.02. 22:30 7 2 14 190° S
Mi, 28.02. 22:00 9 2 15 200° S
Mi, 28.02. 21:30 7 2 11 180° S
Mi, 28.02. 21:00 7 2 14 200° S
Ortszeit Untergrenze Bedeckung Gattung
total tief tief mittel hoch
Mi, 28.02. 19:00 4200 m 8/8 8/8 - - -
Mi, 28.02. 13:00 7800 m 5/8 0/8 - - -
Mi, 28.02. 7:00 <30 m 8/8 0/8 - - -
Mi, 28.02. 1:00 30 m 8/8 8/8 - - -
Di, 27.02. 19:00 150 m 8/8 8/8 - - -
Di, 27.02. 13:00 210 m 8/8 8/8 - - -
Di, 27.02. 7:00 60 m 8/8 8/8 - - -
Di, 27.02. 1:00 90 m 8/8 8/8 - - -
Ortszeit Bedeckungsgrad in Achtel und Wolkenuntergrenze
Do, 29.02. 0:00 2(3900m) 4(10500m)
Mi, 28.02. 23:40 3
Mi, 28.02. 23:30 2(3600m)
Mi, 28.02. 23:20 2(3600m)
Mi, 28.02. 23:10 1
Mi, 28.02. 23:00 1(3600m) 3(4200m)
Mi, 28.02. 22:50 1(3600m) 3(4200m) 3(9000m)
Mi, 28.02. 22:30 8(4200m)
Mi, 28.02. 22:00 8(3900m) 8(5100m)
Mi, 28.02. 21:30 8(3900m) 8(5100m)
Mi, 28.02. 21:00 8(3900m) 8(5400m)
Ortszeit Luftdruck NN (hPa) Tendenz (hPa in 3 Std.)
Mi, 28.02. 19:00 1022 - 0,2
Mi, 28.02. 13:00 1022 0,0
Mi, 28.02. 7:00 1023 + 1,2
Mi, 28.02. 1:00 1021 + 0,7
Di, 27.02. 19:00 1019 + 1,6
Di, 27.02. 13:00 1017 + 0,7
Di, 27.02. 7:00 1015 + 1,3
Di, 27.02. 1:00 1012 + 2,2
Ortszeit Luftdruck NN (hPa) Tendenz (hPa in 3 Std.)
Do, 29.02. 0:00 1021 - 1,3
Mi, 28.02. 23:40 1021 keine Meldung
Mi, 28.02. 23:30 1021 - 0,8
Mi, 28.02. 23:20 1021 keine Meldung
Mi, 28.02. 23:10 1021 keine Meldung
Mi, 28.02. 23:00 1021 - 0,6
Mi, 28.02. 22:50 1021 keine Meldung
Mi, 28.02. 22:30 1022 - 0,5
Mi, 28.02. 22:00 1022 - 0,3
Mi, 28.02. 21:30 1022 - 0,3
Mi, 28.02. 21:00 1022 - 0,2
Ortszeit Schneehöhe (cm)
Mi, 28.02. 19:00 0
Mi, 28.02. 13:00 0
Mi, 28.02. 7:00 0
Mi, 28.02. 1:00 0
Di, 27.02. 19:00 0
Di, 27.02. 13:00 0
Di, 27.02. 7:00 0
Di, 27.02. 1:00 0
Ortszeit Schneehöhe (cm)
Do, 29.02. 0:00 0
Mi, 28.02. 23:40 -
Mi, 28.02. 23:30 0
Mi, 28.02. 23:20 0
Mi, 28.02. 23:10 -
Mi, 28.02. 23:00 0
Mi, 28.02. 22:50 0
Mi, 28.02. 22:30 0
Mi, 28.02. 22:00 0
Mi, 28.02. 21:30 0
Mi, 28.02. 21:00 0
Link zu dieser Seite / Seite empfehlen

Das Wetter in ...